createdAt,value
2023-04-18T00:01:08.382Z,37.63
2023-04-18T00:03:58.918Z,36.97
2023-04-18T00:06:47.961Z,37.90
2023-04-18T00:09:35.487Z,42.17
2023-04-18T00:12:23.278Z,39.10
2023-04-18T00:15:12.084Z,35.17
2023-04-18T00:18:01.011Z,35.85
2023-04-18T00:20:50.796Z,36.83
2023-04-18T00:23:39.735Z,33.92
2023-04-18T00:26:28.239Z,40.03
2023-04-18T00:29:15.891Z,35.83
2023-04-18T00:32:03.056Z,40.03
2023-04-18T00:34:50.228Z,39.60
2023-04-18T00:37:37.914Z,38.10
2023-04-18T00:40:25.410Z,39.90
2023-04-18T00:43:18.731Z,39.22
2023-04-18T00:46:06.339Z,41.13
2023-04-18T00:48:53.629Z,37.05
2023-04-18T00:51:43.511Z,38.45
2023-04-18T00:54:31.023Z,40.90
2023-04-18T00:57:18.408Z,40.28
2023-04-18T01:00:12.771Z,40.55
2023-04-18T01:03:00.263Z,42.40
2023-04-18T01:05:49.043Z,35.20
2023-04-18T01:08:37.587Z,33.60
2023-04-18T01:11:28.755Z,37.08
2023-04-18T01:14:16.985Z,38.72
2023-04-18T01:17:04.210Z,40.58
2023-04-18T01:19:51.521Z,37.70
2023-04-18T01:22:38.718Z,37.58
2023-04-18T01:25:26.182Z,36.15
2023-04-18T01:28:14.804Z,40.85
2023-04-18T01:31:02.591Z,36.97
2023-04-18T01:33:51.829Z,38.60
2023-04-18T01:36:42.418Z,32.55
2023-04-18T01:39:38.293Z,35.55
2023-04-18T01:42:25.836Z,35.17
2023-04-18T01:45:15.378Z,33.90
2023-04-18T01:48:06.268Z,34.63
2023-04-18T01:50:55.997Z,34.53
2023-04-18T01:53:43.339Z,34.33
2023-04-18T01:56:30.747Z,33.38
2023-04-18T01:59:18.199Z,32.88
2023-04-18T02:02:05.454Z,34.90
2023-04-18T02:04:52.579Z,33.60
2023-04-18T02:07:41.244Z,35.53
2023-04-18T02:10:28.428Z,35.85
2023-04-18T02:13:15.753Z,33.55
2023-04-18T02:16:02.918Z,34.15
2023-04-18T02:18:52.819Z,41.30
2023-04-18T02:21:41.958Z,34.05
2023-04-18T02:24:29.223Z,36.58
2023-04-18T02:27:16.845Z,32.40
2023-04-18T02:30:04.430Z,32.70
2023-04-18T02:32:52.737Z,37.05
2023-04-18T02:35:44.095Z,32.30
2023-04-18T02:38:31.876Z,31.42
2023-04-18T02:41:20.057Z,29.70
2023-04-18T02:44:08.627Z,31.65
2023-04-18T02:46:55.786Z,28.75
2023-04-18T02:49:43.117Z,32.00
2023-04-18T02:52:31.252Z,33.97
2023-04-18T02:55:18.722Z,32.33
2023-04-18T02:58:06.159Z,37.15
2023-04-18T03:00:55.044Z,32.30
2023-04-18T03:03:42.250Z,35.10
2023-04-18T03:06:29.510Z,35.03
2023-04-18T03:09:17.066Z,35.28
2023-04-18T03:12:04.716Z,32.40
2023-04-18T03:14:51.946Z,33.10
2023-04-18T03:17:40.101Z,37.35
2023-04-18T03:20:27.711Z,34.97
2023-04-18T03:23:16.998Z,35.42
2023-04-18T03:26:07.289Z,34.78
2023-04-18T03:28:56.643Z,35.55
2023-04-18T03:31:46.399Z,36.00
2023-04-18T03:34:33.951Z,37.40
2023-04-18T03:37:21.349Z,37.35
2023-04-18T03:40:09.058Z,36.33
2023-04-18T03:42:56.232Z,33.78
2023-04-18T03:45:47.488Z,36.13
2023-04-18T03:48:37.267Z,38.03
2023-04-18T03:51:24.862Z,38.00
2023-04-18T03:54:17.149Z,39.47
2023-04-18T03:57:05.731Z,36.80
2023-04-18T03:59:53.452Z,39.55
2023-04-18T04:02:44.161Z,37.15
2023-04-18T04:05:31.654Z,35.55
2023-04-18T04:08:18.901Z,38.38
2023-04-18T04:11:08.626Z,33.17
2023-04-18T04:13:56.027Z,36.42
2023-04-18T04:16:46.481Z,37.28
2023-04-18T04:19:33.656Z,35.92
2023-04-18T04:22:20.941Z,38.42
2023-04-18T04:25:08.643Z,38.33
2023-04-18T04:27:55.935Z,38.80
2023-04-18T04:30:44.043Z,37.25
2023-04-18T04:33:33.366Z,35.65
2023-04-18T04:36:23.177Z,42.60
2023-04-18T04:39:11.538Z,36.00
2023-04-18T04:42:04.494Z,41.35
2023-04-18T04:44:54.353Z,40.53
2023-04-18T04:47:41.549Z,41.40
2023-04-18T04:50:28.705Z,44.95
2023-04-18T04:53:15.983Z,40.25
2023-04-18T04:56:04.866Z,43.22
2023-04-18T04:58:53.480Z,40.80
2023-04-18T05:01:42.928Z,41.03
2023-04-18T05:04:30.432Z,37.72
2023-04-18T05:07:17.776Z,41.70
2023-04-18T05:10:05.718Z,40.42
2023-04-18T05:12:54.405Z,41.33
2023-04-18T05:15:41.753Z,41.85
2023-04-18T05:18:29.057Z,37.42
2023-04-18T05:21:16.637Z,38.80
2023-04-18T05:24:06.038Z,38.47
2023-04-18T05:26:53.706Z,39.42
2023-04-18T05:29:41.173Z,37.70
2023-04-18T05:32:28.443Z,39.08
2023-04-18T05:35:17.831Z,44.55
2023-04-18T05:38:07.294Z,41.70
2023-04-18T05:40:56.119Z,36.47
2023-04-18T06:07:35.896Z,40.70
2023-04-18T06:44:53.846Z,38.75
2023-04-18T07:01:06.945Z,36.83
2023-04-18T07:57:42.591Z,30.38
2023-04-18T08:20:47.303Z,34.33
2023-04-18T08:27:53.823Z,31.90
2023-04-18T09:24:08.458Z,27.63
2023-04-18T09:42:46.313Z,28.00
2023-04-18T11:19:41.098Z,17.08
2023-04-18T11:22:42.550Z,16.08
2023-04-18T12:46:46.360Z,10.20
2023-04-18T12:53:38.664Z,13.38
2023-04-18T12:56:52.823Z,10.80
2023-04-18T12:59:42.483Z,11.52
2023-04-18T13:02:52.495Z,12.30
2023-04-18T13:06:08.936Z,11.48
2023-04-18T13:33:42.397Z,9.93
2023-04-18T14:15:20.777Z,11.10
2023-04-18T14:18:53.400Z,9.63
2023-04-18T14:23:51.426Z,8.38
2023-04-18T14:55:16.357Z,8.32
2023-04-18T16:01:10.011Z,8.82
2023-04-18T16:04:20.608Z,8.63
2023-04-18T16:07:21.429Z,9.23
2023-04-18T16:10:10.864Z,8.52
2023-04-18T16:13:00.591Z,11.13
2023-04-18T16:15:48.593Z,9.50
2023-04-18T16:18:36.815Z,8.38
2023-04-18T16:21:38.019Z,9.13
2023-04-18T16:24:25.882Z,8.60
2023-04-18T16:27:15.806Z,8.52
2023-04-18T16:30:04.409Z,8.35
2023-04-18T16:32:52.304Z,8.95
2023-04-18T16:35:40.512Z,8.40
2023-04-18T16:38:27.844Z,9.43
2023-04-18T16:41:17.690Z,9.63
2023-04-18T16:44:07.691Z,9.13
2023-04-18T16:47:01.471Z,6.68
2023-04-18T16:50:09.371Z,10.80
2023-04-18T16:52:56.982Z,8.10
2023-04-18T16:55:44.840Z,7.85
2023-04-18T16:58:32.632Z,8.63
2023-04-18T17:01:21.097Z,9.02
2023-04-18T17:04:12.610Z,10.50
2023-04-18T17:07:00.809Z,8.47
2023-04-18T17:10:06.421Z,7.85
2023-04-18T17:12:53.778Z,9.32
2023-04-18T17:15:43.364Z,9.45
2023-04-18T17:18:49.741Z,9.27
2023-04-18T17:21:38.131Z,11.48
2023-04-18T17:24:25.473Z,12.07
2023-04-18T17:27:15.795Z,10.00
2023-04-18T17:30:03.692Z,10.93
2023-04-18T17:32:51.229Z,9.98
2023-04-18T17:35:41.763Z,10.80
2023-04-18T17:38:29.197Z,12.05
2023-04-18T17:41:23.310Z,10.25
2023-04-18T17:44:13.527Z,10.52
2023-04-18T17:47:02.339Z,11.10
2023-04-18T17:49:49.701Z,11.68
2023-04-18T17:52:37.503Z,9.50
2023-04-18T17:55:30.165Z,15.15
2023-04-18T18:01:36.634Z,11.57
2023-04-18T18:04:28.274Z,11.68
2023-04-18T18:07:50.453Z,11.07
2023-04-18T18:11:13.604Z,11.07
2023-04-18T18:18:33.915Z,10.48
2023-04-18T18:26:19.238Z,11.13
2023-04-18T18:29:28.551Z,12.25
2023-04-18T18:32:51.945Z,13.23
2023-04-18T18:35:51.469Z,13.32
2023-04-18T18:38:52.055Z,12.48
2023-04-18T18:41:56.656Z,10.57
2023-04-18T18:44:47.485Z,12.70
2023-04-18T18:47:59.290Z,12.13
2023-04-18T18:50:59.051Z,13.73
2023-04-18T18:54:28.717Z,14.95
2023-04-18T18:57:28.329Z,12.77
2023-04-18T19:00:25.038Z,11.77
2023-04-18T19:03:12.978Z,12.43
2023-04-18T19:06:18.037Z,12.38
2023-04-18T19:09:10.781Z,13.02
2023-04-18T19:15:17.079Z,13.80
2023-04-18T19:18:10.176Z,17.63
2023-04-18T19:20:57.542Z,15.85
2023-04-18T19:23:44.935Z,22.88
2023-04-18T19:26:32.877Z,16.17
2023-04-18T19:29:23.019Z,15.50
2023-04-18T19:32:16.777Z,15.73
2023-04-18T19:35:12.232Z,16.27
2023-04-18T19:38:10.752Z,15.00
2023-04-18T19:41:21.120Z,15.95
2023-04-18T19:44:10.102Z,16.05
2023-04-18T19:47:58.100Z,15.45
2023-04-18T19:50:48.374Z,13.35
2023-04-18T19:53:38.263Z,17.30
2023-04-18T19:56:30.023Z,17.90
2023-04-18T19:59:17.638Z,14.80
2023-04-18T20:02:06.579Z,12.73
2023-04-18T20:04:54.388Z,13.80
2023-04-18T20:07:42.369Z,15.70
2023-04-18T20:10:30.608Z,13.73
2023-04-18T20:13:18.190Z,15.85
2023-04-18T20:16:09.607Z,16.83
2023-04-18T20:18:57.427Z,15.57
2023-04-18T20:21:45.095Z,16.77
2023-04-18T20:24:34.231Z,17.38
2023-04-18T20:27:21.674Z,16.15
2023-04-18T20:30:09.473Z,17.92
2023-04-18T20:32:56.767Z,19.48
2023-04-18T20:35:44.878Z,34.88
2023-04-18T20:38:34.685Z,23.48
2023-04-18T20:41:53.734Z,19.23
2023-04-18T20:44:44.433Z,17.45
2023-04-18T20:47:33.859Z,15.95
2023-04-18T20:50:21.597Z,16.30
2023-04-18T20:53:12.816Z,14.88
2023-04-18T20:56:03.252Z,16.38
2023-04-18T20:58:50.939Z,14.05
2023-04-18T21:01:38.319Z,16.80
2023-04-18T21:04:25.720Z,14.73
2023-04-18T21:07:15.350Z,15.55
2023-04-18T21:10:06.112Z,18.13
2023-04-18T21:12:55.669Z,19.23
2023-04-18T21:15:46.868Z,16.80
2023-04-18T21:18:34.457Z,17.23
2023-04-18T21:24:30.100Z,19.48
2023-04-18T21:27:17.413Z,15.90
2023-04-18T21:30:08.199Z,21.17
2023-04-18T21:32:59.018Z,20.40
2023-04-18T21:35:46.224Z,17.40
2023-04-18T21:38:37.204Z,17.85
2023-04-18T21:41:28.870Z,21.48
2023-04-18T21:44:18.953Z,17.35
2023-04-18T21:47:06.472Z,20.45
2023-04-18T21:49:53.939Z,21.92
2023-04-18T21:52:45.526Z,20.13
2023-04-18T21:55:35.124Z,20.20
2023-04-18T21:58:22.951Z,17.45
2023-04-18T22:01:10.342Z,21.45
2023-04-18T22:03:57.848Z,20.20
2023-04-18T22:06:45.245Z,18.85
2023-04-18T22:09:38.224Z,19.52
2023-04-18T22:12:26.461Z,19.58
2023-04-18T22:15:18.210Z,18.75
2023-04-18T22:18:06.839Z,17.98
2023-04-18T22:20:55.576Z,17.92
2023-04-18T22:23:42.794Z,20.27
2023-04-18T22:26:29.927Z,20.40
2023-04-18T22:29:21.029Z,19.02
2023-04-18T22:32:08.207Z,18.15
2023-04-18T22:34:55.628Z,18.50
2023-04-18T22:37:42.882Z,24.38
2023-04-18T22:40:30.031Z,20.33
2023-04-18T22:43:23.004Z,20.80
2023-04-18T22:46:12.944Z,21.77
2023-04-18T22:49:01.335Z,18.73
2023-04-18T22:51:50.758Z,20.45
2023-04-18T22:54:41.071Z,21.13
2023-04-18T22:57:28.632Z,20.90
2023-04-18T23:00:42.519Z,21.88
2023-04-18T23:03:32.246Z,17.88
2023-04-18T23:06:29.588Z,21.17
2023-04-18T23:09:19.703Z,18.95
2023-04-18T23:12:07.221Z,20.73
2023-04-18T23:14:54.429Z,26.30
2023-04-18T23:17:42.160Z,22.95
2023-04-18T23:20:29.818Z,20.40
2023-04-18T23:23:17.109Z,20.00
2023-04-18T23:26:13.424Z,20.98
2023-04-18T23:29:00.856Z,18.30
2023-04-18T23:31:48.469Z,24.23
2023-04-18T23:34:39.099Z,23.83
2023-04-18T23:37:26.281Z,19.15
2023-04-18T23:40:13.671Z,22.02
2023-04-18T23:43:01.886Z,20.77
2023-04-18T23:45:50.728Z,19.95
2023-04-18T23:48:37.960Z,22.20
2023-04-18T23:51:26.244Z,25.55
2023-04-18T23:54:13.923Z,22.13
2023-04-18T23:57:02.832Z,21.95
2023-04-18T23:59:51.400Z,22.85
